createdAt,value
2022-08-05T00:00:51.557Z,20.15
2022-08-05T00:03:53.519Z,20.02
2022-08-05T00:06:59.202Z,20.46
2022-08-05T00:10:01.116Z,20.16
2022-08-05T00:13:02.878Z,20.28
2022-08-05T00:16:06.119Z,20.10
2022-08-05T00:19:10.393Z,20.37
2022-08-05T00:22:12.475Z,20.31
2022-08-05T00:25:14.162Z,20.04
2022-08-05T00:28:29.458Z,20.05
2022-08-05T00:31:53.458Z,20.04
2022-08-05T00:35:06.591Z,20.04
2022-08-05T00:38:09.555Z,20.04
2022-08-05T00:41:11.660Z,19.76
2022-08-05T00:44:13.736Z,19.69
2022-08-05T00:47:16.450Z,19.68
2022-08-05T00:50:18.860Z,19.67
2022-08-05T00:54:00.738Z,19.63
2022-08-05T00:56:51.334Z,19.99
2022-08-05T00:59:53.327Z,19.71
2022-08-05T01:02:56.775Z,19.52
2022-08-05T01:05:58.929Z,19.71
2022-08-05T01:09:00.670Z,19.86
2022-08-05T01:12:18.114Z,19.87
2022-08-05T01:15:36.396Z,19.91
2022-08-05T01:18:48.117Z,19.86
2022-08-05T01:22:23.835Z,19.71
2022-08-05T01:26:01.800Z,19.71
2022-08-05T01:29:09.705Z,19.80
2022-08-05T01:32:18.368Z,20.23
2022-08-05T01:35:50.607Z,20.27
2022-08-05T01:38:49.891Z,20.46
2022-08-05T01:41:54.692Z,20.62
2022-08-05T01:44:59.243Z,20.49
2022-08-05T01:48:03.573Z,20.40
2022-08-05T01:51:14.844Z,19.85
2022-08-05T01:54:19.970Z,19.57
2022-08-05T01:58:10.037Z,19.63
2022-08-05T02:00:54.003Z,19.37
2022-08-05T02:03:56.966Z,19.52
2022-08-05T02:06:59.738Z,19.13
2022-08-05T02:10:07.961Z,19.01
2022-08-05T02:13:18.940Z,19.19
2022-08-05T02:16:42.246Z,19.26
2022-08-05T02:19:53.318Z,19.34
2022-08-05T02:23:05.671Z,19.02
2022-08-05T02:26:13.297Z,18.63
2022-08-05T02:29:21.540Z,18.76
2022-08-05T02:32:32.160Z,18.51
2022-08-05T02:35:38.505Z,18.12
2022-08-05T02:38:55.108Z,18.81
2022-08-05T02:42:01.221Z,17.88
2022-08-05T02:45:07.427Z,18.09
2022-08-05T02:48:12.574Z,17.62
2022-08-05T02:51:15.732Z,17.63
2022-08-05T02:54:36.073Z,17.68
2022-08-05T02:58:09.833Z,17.74
2022-08-05T03:01:03.287Z,17.80
2022-08-05T03:04:14.374Z,17.78
2022-08-05T03:07:59.373Z,17.86
2022-08-05T03:11:53.215Z,17.69
2022-08-05T03:14:08.029Z,17.51
2022-08-05T03:17:10.131Z,17.75
2022-08-05T03:20:13.640Z,17.70
2022-08-05T03:23:16.043Z,17.36
2022-08-05T03:26:31.378Z,17.50
2022-08-05T03:29:45.880Z,17.48
2022-08-05T03:32:57.300Z,17.67
2022-08-05T03:36:00.243Z,18.00
2022-08-05T03:39:08.049Z,18.05
2022-08-05T03:42:14.515Z,17.51
2022-08-05T03:45:21.585Z,17.31
2022-08-05T03:48:24.980Z,17.33
2022-08-05T03:52:37.397Z,17.50
2022-08-05T03:56:01.855Z,17.73
2022-08-05T03:58:29.238Z,17.77
2022-08-05T04:01:32.941Z,17.90
2022-08-05T04:04:35.993Z,18.27
2022-08-05T04:07:58.062Z,17.92
2022-08-05T04:11:02.743Z,18.02
2022-08-05T04:14:05.063Z,17.98
2022-08-05T04:17:09.259Z,18.43
2022-08-05T04:20:21.233Z,18.23
2022-08-05T04:24:05.368Z,18.38
2022-08-05T04:26:50.028Z,18.52
2022-08-05T04:29:51.684Z,18.37
2022-08-05T04:32:53.501Z,18.50
2022-08-05T04:36:10.879Z,18.63
2022-08-05T04:39:19.064Z,18.69
2022-08-05T04:42:20.692Z,18.84
2022-08-05T04:45:47.693Z,18.96
2022-08-05T04:48:49.141Z,19.20
2022-08-05T04:52:00.387Z,19.35
2022-08-05T04:55:13.875Z,19.46
2022-08-05T04:58:17.847Z,19.63
2022-08-05T05:02:05.445Z,19.73
2022-08-05T05:04:49.780Z,19.58
2022-08-05T05:07:56.128Z,19.72
2022-08-05T05:11:02.665Z,19.73
2022-08-05T05:14:04.451Z,19.85
2022-08-05T05:17:10.559Z,20.02
2022-08-05T05:20:13.841Z,20.10
2022-08-05T05:23:19.924Z,20.27
2022-08-05T05:26:28.287Z,20.63
2022-08-05T05:29:40.827Z,20.83
2022-08-05T05:32:56.394Z,21.10
2022-08-05T05:35:58.174Z,21.20
2022-08-05T05:39:03.859Z,21.43
2022-08-05T05:42:06.185Z,21.77
2022-08-05T05:45:09.221Z,22.32
2022-08-05T05:48:10.854Z,22.65
2022-08-05T05:51:19.762Z,22.96
2022-08-05T05:54:22.037Z,23.07
2022-08-05T05:57:52.141Z,23.20
2022-08-05T06:00:54.886Z,23.60
2022-08-05T06:04:02.140Z,23.90
2022-08-05T06:07:05.527Z,23.93
2022-08-05T06:10:10.465Z,24.33
2022-08-05T06:13:12.612Z,24.52
2022-08-05T06:16:28.883Z,24.83
2022-08-05T06:19:34.738Z,24.83
2022-08-05T06:22:37.451Z,24.90
2022-08-05T06:26:12.181Z,25.00
2022-08-05T06:29:06.934Z,25.11
2022-08-05T06:32:28.868Z,25.15
2022-08-05T06:36:05.782Z,25.32
2022-08-05T06:38:54.806Z,25.50
2022-08-05T06:42:04.192Z,25.73
2022-08-05T06:45:08.525Z,25.95
2022-08-05T06:48:36.627Z,26.16
2022-08-05T06:51:32.737Z,26.36
2022-08-05T06:54:34.787Z,26.38
2022-08-05T06:58:02.558Z,26.56
2022-08-05T07:01:01.288Z,26.62
2022-08-05T07:04:03.486Z,26.80
2022-08-05T07:07:06.265Z,26.97
2022-08-05T07:10:10.507Z,26.99
2022-08-05T07:13:57.053Z,27.20
2022-08-05T07:18:00.459Z,27.27
2022-08-05T07:20:33.442Z,27.54
2022-08-05T07:23:37.497Z,27.80
2022-08-05T07:26:51.201Z,27.70
2022-08-05T07:30:28.228Z,27.82
2022-08-05T07:33:16.467Z,27.90
2022-08-05T07:36:21.270Z,28.09
2022-08-05T07:39:50.342Z,28.27
2022-08-05T07:42:45.069Z,28.40
2022-08-05T07:45:56.693Z,28.58
2022-08-05T07:49:05.871Z,28.76
2022-08-05T07:52:08.332Z,29.09
2022-08-05T07:55:44.024Z,29.43
2022-08-05T07:58:54.712Z,29.87
2022-08-05T08:01:57.584Z,30.55
2022-08-05T08:05:00.823Z,30.70
2022-08-05T08:08:03.100Z,31.39
2022-08-05T08:11:05.177Z,32.25
2022-08-05T08:14:10.832Z,32.72
2022-08-05T08:17:21.429Z,32.68
2022-08-05T08:20:45.008Z,33.71
2022-08-05T08:24:03.357Z,33.79
2022-08-05T08:27:07.426Z,34.54
2022-08-05T08:30:30.212Z,35.33
2022-08-05T08:33:37.624Z,35.75
2022-08-05T08:36:47.594Z,36.08
2022-08-05T08:39:52.267Z,37.96
2022-08-05T08:42:54.751Z,38.57
2022-08-05T08:46:01.621Z,39.32
2022-08-05T08:50:04.092Z,38.55
2022-08-05T08:52:31.273Z,38.31
2022-08-05T08:56:03.141Z,39.41
2022-08-05T08:58:59.379Z,40.99
2022-08-05T09:02:08.725Z,41.35
2022-08-05T09:05:17.747Z,41.09
2022-08-05T09:08:20.361Z,40.56
2022-08-05T09:11:51.301Z,41.35
2022-08-05T09:14:58.065Z,42.75
2022-08-05T09:18:09.091Z,42.14
2022-08-05T09:21:11.711Z,42.99
2022-08-05T09:24:23.072Z,42.86
2022-08-05T09:28:04.307Z,43.23
2022-08-05T09:31:01.080Z,42.02
2022-08-05T09:34:22.765Z,43.32
2022-08-05T09:38:16.907Z,42.54
2022-08-05T09:40:52.240Z,43.20
2022-08-05T09:43:55.336Z,45.99
2022-08-05T09:47:10.498Z,43.62
2022-08-05T09:50:18.103Z,44.37
2022-08-05T09:53:53.964Z,46.63
2022-08-05T09:57:01.108Z,46.50
2022-08-05T10:00:15.673Z,47.23
2022-08-05T10:03:17.542Z,46.78
2022-08-05T10:06:22.073Z,46.46
2022-08-05T10:09:28.414Z,47.88
2022-08-05T10:12:59.995Z,46.89
2022-08-05T10:16:03.140Z,45.06
2022-08-05T10:19:09.377Z,47.35
2022-08-05T10:22:15.821Z,46.93
2022-08-05T10:25:32.420Z,45.44
2022-08-05T10:28:36.639Z,43.16
2022-08-05T10:32:52.207Z,45.59
2022-08-05T10:35:03.957Z,45.84
2022-08-05T10:38:08.377Z,44.80
2022-08-05T10:41:44.874Z,42.78
2022-08-05T10:44:49.377Z,42.12
2022-08-05T10:48:30.076Z,41.23
2022-08-05T10:51:21.900Z,40.83
2022-08-05T10:54:47.089Z,39.58
2022-08-05T10:58:11.910Z,39.33
2022-08-05T11:01:28.065Z,37.71
2022-08-05T11:04:48.049Z,38.34
2022-08-05T11:08:02.951Z,37.64
2022-08-05T11:11:53.279Z,35.56
2022-08-05T11:15:20.360Z,35.39
2022-08-05T11:18:27.574Z,35.75
2022-08-05T11:21:48.921Z,35.57
2022-08-05T11:26:05.098Z,35.86
2022-08-05T11:28:53.568Z,35.64
2022-08-05T11:32:26.474Z,35.84
2022-08-05T11:36:08.133Z,35.58
2022-08-05T11:39:12.248Z,35.63
2022-08-05T11:42:18.493Z,35.65
2022-08-05T11:46:15.411Z,35.83
2022-08-05T11:48:42.400Z,35.63
2022-08-05T11:51:49.514Z,35.68
2022-08-05T11:54:54.990Z,35.56
2022-08-05T11:58:10.028Z,35.40
2022-08-05T12:01:19.003Z,34.86
2022-08-05T12:08:08.963Z,35.78
2022-08-05T12:11:06.170Z,36.15
2022-08-05T12:14:10.104Z,36.09
2022-08-05T12:18:00.842Z,36.14
2022-08-05T12:20:38.733Z,36.21
2022-08-05T12:23:51.310Z,36.77
2022-08-05T12:26:54.876Z,36.94
2022-08-05T12:30:08.912Z,36.36
2022-08-05T12:33:27.080Z,36.55
2022-08-05T12:36:31.193Z,37.14
2022-08-05T12:39:34.615Z,37.31
2022-08-05T12:42:40.838Z,37.25
2022-08-05T12:45:56.545Z,37.26
2022-08-05T12:49:13.402Z,38.45
2022-08-05T12:52:25.257Z,38.88
2022-08-05T12:55:33.054Z,39.14
2022-08-05T12:58:52.743Z,39.50
2022-08-05T13:02:07.562Z,39.72
2022-08-05T13:05:12.745Z,39.77
2022-08-05T13:08:18.673Z,42.17
2022-08-05T13:12:02.655Z,45.42
2022-08-05T13:15:05.518Z,46.94
2022-08-05T13:18:09.554Z,49.05
2022-08-05T13:21:11.820Z,49.47
2022-08-05T13:24:14.602Z,49.50
2022-08-05T13:27:41.049Z,49.39
2022-08-05T13:30:43.064Z,50.34
2022-08-05T13:34:22.158Z,50.95
2022-08-05T13:37:07.123Z,49.87
2022-08-05T13:40:15.991Z,52.19
2022-08-05T13:43:22.368Z,53.05
2022-08-05T13:49:47.477Z,53.29
2022-08-05T13:52:50.731Z,54.55
2022-08-05T13:56:00.177Z,53.82
2022-08-05T13:59:06.266Z,52.88
2022-08-05T14:02:26.615Z,54.54
2022-08-05T14:06:24.522Z,53.04
2022-08-05T14:08:53.208Z,51.25
2022-08-05T14:12:00.661Z,51.34
2022-08-05T14:16:06.076Z,49.31
2022-08-05T14:18:39.029Z,50.06
2022-08-05T14:22:09.801Z,50.03
2022-08-05T14:25:06.426Z,51.39
2022-08-05T14:28:27.053Z,49.88
2022-08-05T14:32:03.520Z,50.92
2022-08-05T14:34:51.395Z,50.34
2022-08-05T14:37:55.381Z,49.66
2022-08-05T14:40:57.776Z,48.33
2022-08-05T14:44:09.743Z,46.61
2022-08-05T14:47:58.364Z,45.03
2022-08-05T14:50:43.946Z,42.53
2022-08-05T14:54:06.598Z,40.40
2022-08-05T14:57:09.788Z,39.72
2022-08-05T15:00:15.814Z,39.23
2022-08-05T15:03:22.972Z,39.12
2022-08-05T15:06:27.934Z,39.20
2022-08-05T15:09:51.743Z,37.70
2022-08-05T15:13:01.168Z,37.82
2022-08-05T15:16:06.387Z,38.11
2022-08-05T15:19:08.515Z,38.29
2022-08-05T15:22:27.062Z,37.95
2022-08-05T15:25:41.062Z,38.04
2022-08-05T15:28:52.055Z,38.08
2022-08-05T15:31:54.154Z,36.77
2022-08-05T15:34:57.287Z,37.38
2022-08-05T15:38:32.448Z,37.11
2022-08-05T15:41:24.651Z,37.13
2022-08-05T15:44:45.737Z,36.60
2022-08-05T15:47:47.693Z,36.92
2022-08-05T15:50:49.541Z,36.28
2022-08-05T15:53:53.447Z,36.69
2022-08-05T15:56:55.117Z,36.64
2022-08-05T15:59:57.657Z,36.30
2022-08-05T16:03:00.146Z,36.37
2022-08-05T16:06:02.436Z,36.14
2022-08-05T16:09:04.352Z,35.92
2022-08-05T16:12:06.571Z,35.24
2022-08-05T16:15:09.618Z,35.06
2022-08-05T16:18:12.384Z,35.17
2022-08-05T16:21:16.361Z,34.92
2022-08-05T16:24:41.265Z,35.28
2022-08-05T16:28:00.179Z,35.11
2022-08-05T16:31:03.833Z,35.02
2022-08-05T16:34:05.925Z,34.79
2022-08-05T16:38:01.755Z,34.57
2022-08-05T16:40:33.073Z,34.74
2022-08-05T16:43:35.324Z,34.69
2022-08-05T16:46:41.133Z,34.60
2022-08-05T16:49:43.153Z,34.29
2022-08-05T16:52:46.093Z,34.38
2022-08-05T16:55:48.047Z,34.26
2022-08-05T16:58:50.021Z,34.04
2022-08-05T17:01:54.898Z,33.89
2022-08-05T17:04:57.742Z,33.58
2022-08-05T17:07:59.579Z,33.05
2022-08-05T17:11:02.811Z,32.58
2022-08-05T17:14:06.270Z,32.08
2022-08-05T17:17:14.850Z,32.17
2022-08-05T17:20:17.003Z,32.45
2022-08-05T17:24:04.347Z,32.34
2022-08-05T17:26:41.009Z,32.34
2022-08-05T17:29:43.094Z,32.37
2022-08-05T17:32:45.005Z,32.30
2022-08-05T17:36:07.632Z,32.40
2022-08-05T17:39:23.759Z,32.37
2022-08-05T17:42:32.300Z,32.26
2022-08-05T17:45:38.626Z,32.15
2022-08-05T17:48:40.603Z,31.91
2022-08-05T17:51:46.711Z,31.61
2022-08-05T17:54:52.771Z,31.38
2022-08-05T17:57:56.091Z,30.83
2022-08-05T18:00:58.155Z,30.66
2022-08-05T18:04:04.518Z,30.55
2022-08-05T18:07:07.643Z,30.06
2022-08-05T18:10:21.044Z,30.22
2022-08-05T18:13:23.232Z,30.03
2022-08-05T18:16:27.536Z,30.05
2022-08-05T18:19:30.038Z,29.96
2022-08-05T18:22:36.284Z,29.97
2022-08-05T18:25:48.287Z,29.93
2022-08-05T18:29:00.467Z,29.57
2022-08-05T18:32:03.008Z,28.82
2022-08-05T18:35:05.362Z,28.28
2022-08-05T18:38:07.815Z,28.15
2022-08-05T18:41:53.251Z,28.12
2022-08-05T18:44:35.455Z,27.87
2022-08-05T18:47:56.745Z,27.80
2022-08-05T18:52:04.668Z,27.96
2022-08-05T18:54:41.233Z,27.85
2022-08-05T18:57:52.693Z,27.49
2022-08-05T19:00:55.632Z,27.33
2022-08-05T19:03:57.588Z,27.15
2022-08-05T19:06:59.749Z,26.88
2022-08-05T19:10:02.776Z,26.91
2022-08-05T19:13:15.727Z,26.80
2022-08-05T19:16:25.272Z,26.72
2022-08-05T19:19:32.249Z,26.59
2022-08-05T19:22:36.057Z,26.70
2022-08-05T19:25:43.620Z,26.50
2022-08-05T19:28:46.412Z,26.41
2022-08-05T19:31:51.348Z,26.32
2022-08-05T19:34:55.011Z,26.43
2022-08-05T19:38:06.379Z,26.31
2022-08-05T19:41:10.539Z,26.15
2022-08-05T19:44:13.399Z,25.95
2022-08-05T19:47:16.594Z,26.05
2022-08-05T19:50:20.455Z,25.99
2022-08-05T19:54:04.498Z,25.80
2022-08-05T19:56:48.512Z,25.85
2022-08-05T20:00:01.048Z,25.72
2022-08-05T20:03:08.474Z,25.32
2022-08-05T20:06:15.774Z,25.36
2022-08-05T20:09:30.759Z,25.35
2022-08-05T20:12:52.769Z,25.24
2022-08-05T20:15:56.804Z,25.48
2022-08-05T20:18:59.615Z,25.72
2022-08-05T20:22:03.275Z,25.40
2022-08-05T20:25:07.374Z,25.60
2022-08-05T20:28:13.783Z,24.95
2022-08-05T20:31:28.390Z,24.79
2022-08-05T20:34:39.420Z,25.23
2022-08-05T20:38:08.029Z,25.38
2022-08-05T20:41:08.303Z,24.81
2022-08-05T20:44:19.191Z,24.64
2022-08-05T20:47:32.737Z,24.66
2022-08-05T20:50:36.936Z,24.82
2022-08-05T20:53:41.597Z,24.25
2022-08-05T20:56:43.356Z,24.41
2022-08-05T20:59:46.078Z,24.22
2022-08-05T21:03:07.972Z,24.35
2022-08-05T21:06:27.712Z,24.60
2022-08-05T21:09:30.765Z,24.84
2022-08-05T21:12:36.291Z,24.32
2022-08-05T21:15:38.107Z,23.92
2022-08-05T21:18:42.934Z,23.93
2022-08-05T21:21:50.806Z,23.92
2022-08-05T21:24:54.789Z,23.56
2022-08-05T21:27:56.658Z,24.22
2022-08-05T21:30:59.059Z,24.43
2022-08-05T21:34:00.687Z,24.40
2022-08-05T21:37:04.779Z,24.45
2022-08-05T21:40:07.298Z,23.67
2022-08-05T21:43:23.891Z,23.52
2022-08-05T21:46:27.390Z,23.98
2022-08-05T21:49:59.397Z,24.19
2022-08-05T21:52:52.940Z,24.26
2022-08-05T21:56:05.571Z,24.07
2022-08-05T21:59:22.685Z,23.49
2022-08-05T22:02:27.594Z,23.14
2022-08-05T22:05:29.511Z,23.33
2022-08-05T22:08:52.617Z,23.60
2022-08-05T22:11:54.667Z,23.33
2022-08-05T22:14:58.861Z,23.40
2022-08-05T22:18:01.759Z,23.70
2022-08-05T22:21:04.675Z,23.61
2022-08-05T22:24:40.856Z,23.25
2022-08-05T22:28:09.062Z,23.24
2022-08-05T22:31:09.420Z,23.30
2022-08-05T22:34:25.419Z,23.79
2022-08-05T22:37:32.131Z,22.72
2022-08-05T22:40:55.010Z,22.86
2022-08-05T22:43:59.594Z,22.48
2022-08-05T22:47:01.350Z,22.31
2022-08-05T22:50:23.295Z,22.16
2022-08-05T22:53:35.940Z,21.97
2022-08-05T22:56:40.104Z,21.88
2022-08-05T22:59:51.942Z,21.83
2022-08-05T23:02:56.254Z,22.04
2022-08-05T23:05:59.908Z,22.32
2022-08-05T23:09:27.980Z,21.43
2022-08-05T23:12:25.416Z,21.68
2022-08-05T23:15:35.156Z,21.74
2022-08-05T23:18:38.561Z,21.66
2022-08-05T23:21:43.100Z,21.32
2022-08-05T23:24:51.373Z,21.21
2022-08-05T23:28:00.231Z,21.25
2022-08-05T23:31:17.159Z,20.86
2022-08-05T23:34:24.365Z,21.05
2022-08-05T23:37:26.703Z,21.14
2022-08-05T23:40:36.114Z,21.12
2022-08-05T23:44:05.430Z,21.04
2022-08-05T23:47:15.025Z,21.15
2022-08-05T23:50:20.291Z,21.19
2022-08-05T23:53:23.021Z,21.04
2022-08-05T23:56:27.523Z,20.97
